Time;durP1;ratioP1;P1;durP2;ratioP2;P2;SDS_P1;SDS_P2;PMS_P1;PMS_P2;Temp;Humidity;BMP_temperature;BMP_pressure;BME280_temperature;BME280_humidity;BME280_pressure;Samples;Min_cycle;Max_cycle;Signal;HPM_P1;HPM_P2
2024/02/18 00:04:11;;;;;;;;;;;9.60;99.90;;;;;;6644050;88;20068;-75
2024/02/18 00:14:12;;;;;;;;;;;9.70;99.90;;;;;;6644372;88;20518;-75
2024/02/18 00:24:13;;;;;;;;;;;9.50;99.90;;;;;;6654437;88;20059;-75
2024/02/18 00:34:20;;;;;;;;;;;9.50;99.90;;;;;;6639738;77;20078;-77
2024/02/18 00:44:24;;;;;;;;;;;9.70;99.90;;;;;;6668426;88;20155;-78
2024/02/18 00:54:24;;;;;;;;;;;9.70;99.90;;;;;;6649563;89;20663;-79
2024/02/18 01:04:25;;;;;;;;;;;9.60;99.90;;;;;;6674107;88;20086;-79
2024/02/18 01:14:25;;;;;;;;;;;9.40;99.90;;;;;;6666887;88;20550;-80
2024/02/18 01:24:25;;;;;;;;;;;9.30;99.90;;;;;;6673407;88;20066;-79
2024/02/18 01:34:26;;;;;;;;;;;9.30;99.90;;;;;;6662591;88;20140;-80
2024/02/18 01:44:26;;;;;;;;;;;9.20;99.90;;;;;;6699835;88;20084;-79
2024/02/18 01:54:33;;;;;;;;;;;9.10;99.90;;;;;;6724773;88;20107;-78
2024/02/18 02:04:33;;;;;;;;;;;9.20;99.90;;;;;;6716454;88;20100;-78
2024/02/18 02:14:34;;;;;;;;;;;9.00;99.90;;;;;;6659809;88;20061;-80
2024/02/18 02:24:35;;;;;;;;;;;8.80;99.90;;;;;;6674770;88;20052;-79
2024/02/18 02:34:35;;;;;;;;;;;8.70;99.90;;;;;;6656367;88;20081;-79
2024/02/18 02:44:35;;;;;;;;;;;8.60;99.90;;;;;;6664376;88;20066;-79
2024/02/18 02:54:36;;;;;;;;;;;8.60;99.90;;;;;;6675496;88;20056;-79
2024/02/18 03:04:37;;;;;;;;;;;8.50;99.90;;;;;;6674387;88;20079;-79
2024/02/18 03:14:37;;;;;;;;;;;8.40;99.90;;;;;;6702374;88;20076;-79
2024/02/18 03:24:38;;;;;;;;;;;8.30;99.90;;;;;;6664959;88;20185;-79
2024/02/18 03:34:40;;;;;;;;;;;8.30;99.90;;;;;;6674934;88;20057;-78
2024/02/18 03:44:40;;;;;;;;;;;8.20;99.90;;;;;;6660523;88;20207;-79
2024/02/18 03:54:41;;;;;;;;;;;8.10;99.90;;;;;;6679180;88;20081;-79
2024/02/18 04:04:41;;;;;;;;;;;8.10;99.90;;;;;;6664170;88;20116;-79
2024/02/18 04:14:42;;;;;;;;;;;8.00;99.90;;;;;;6669696;88;20071;-77
2024/02/18 04:24:42;;;;;;;;;;;7.90;99.90;;;;;;6683870;88;20085;-78
2024/02/18 04:34:44;;;;;;;;;;;7.80;99.90;;;;;;6652023;88;20075;-79
2024/02/18 04:44:44;;;;;;;;;;;7.80;99.90;;;;;;6659709;88;20084;-79
2024/02/18 04:54:44;;;;;;;;;;;7.90;99.90;;;;;;6657971;88;20070;-78
2024/02/18 05:04:45;;;;;;;;;;;7.80;99.90;;;;;;6691802;88;20123;-78
2024/02/18 05:14:46;;;;;;;;;;;7.70;99.90;;;;;;6670699;88;20067;-79
2024/02/18 05:24:47;;;;;;;;;;;7.70;99.90;;;;;;6698889;88;20082;-79
2024/02/18 05:34:48;;;;;;;;;;;7.70;99.90;;;;;;6659373;88;20078;-78
2024/02/18 05:44:48;;;;;;;;;;;7.60;99.90;;;;;;6685833;88;20506;-79
2024/02/18 05:54:49;;;;;;;;;;;7.50;99.90;;;;;;6679364;88;20077;-79
2024/02/18 06:04:49;;;;;;;;;;;7.40;99.90;;;;;;6690635;88;20157;-79
2024/02/18 06:14:50;;;;;;;;;;;7.30;99.90;;;;;;6681922;88;20063;-79
2024/02/18 06:24:50;;;;;;;;;;;7.10;99.90;;;;;;6681095;88;20080;-79
2024/02/18 06:34:51;;;;;;;;;;;7.20;99.90;;;;;;6671482;77;20091;-76
2024/02/18 06:44:51;;;;;;;;;;;7.10;99.90;;;;;;6645935;88;20080;-76
2024/02/18 06:54:52;;;;;;;;;;;7.10;99.90;;;;;;6637337;88;20061;-75
2024/02/18 07:04:53;;;;;;;;;;;7.20;99.90;;;;;;6654621;88;20071;-73
2024/02/18 07:14:54;;;;;;;;;;;7.20;99.90;;;;;;6647365;88;20186;-74
2024/02/18 07:24:54;;;;;;;;;;;7.10;99.90;;;;;;6663437;88;20599;-75
2024/02/18 07:34:55;;;;;;;;;;;7.10;99.90;;;;;;6647727;88;20178;-75
2024/02/18 07:44:56;;;;;;;;;;;7.10;99.90;;;;;;6658230;88;20116;-75
2024/02/18 07:54:56;;;;;;;;;;;7.10;99.90;;;;;;6670091;88;20122;-75
2024/02/18 08:04:57;;;;;;;;;;;7.20;99.90;;;;;;6639767;88;20575;-76
2024/02/18 08:14:58;;;;;;;;;;;7.30;99.90;;;;;;6629806;88;20141;-75
2024/02/18 08:24:58;;;;;;;;;;;7.30;99.90;;;;;;6645014;88;20179;-76
2024/02/18 08:34:59;;;;;;;;;;;7.40;99.90;;;;;;6649351;88;20066;-76
2024/02/18 08:44:59;;;;;;;;;;;7.50;99.90;;;;;;6674729;88;20096;-74
2024/02/18 08:54:59;;;;;;;;;;;7.60;99.90;;;;;;6661653;88;20086;-76
2024/02/18 09:05:00;;;;;;;;;;;7.70;99.90;;;;;;6642969;88;20105;-75
2024/02/18 09:15:01;;;;;;;;;;;7.80;99.90;;;;;;6660962;88;20073;-76
2024/02/18 09:25:01;;;;;;;;;;;7.90;99.90;;;;;;6670723;88;20189;-76
2024/02/18 09:35:02;;;;;;;;;;;8.10;99.90;;;;;;6646743;88;20062;-77
2024/02/18 09:45:03;;;;;;;;;;;8.20;99.90;;;;;;6654298;88;20193;-76
2024/02/18 09:55:04;;;;;;;;;;;8.30;99.90;;;;;;6658401;88;20418;-77
2024/02/18 10:05:06;;;;;;;;;;;8.40;99.90;;;;;;6630537;89;20071;-78
2024/02/18 10:15:07;;;;;;;;;;;8.50;99.90;;;;;;6657530;88;20501;-77
2024/02/18 10:25:07;;;;;;;;;;;8.70;99.90;;;;;;6665647;88;20062;-77
2024/02/18 10:35:08;;;;;;;;;;;8.90;99.90;;;;;;6665425;88;20559;-76
2024/02/18 10:45:09;;;;;;;;;;;9.00;99.90;;;;;;6639561;88;20221;-77
2024/02/18 10:55:11;;;;;;;;;;;9.20;99.90;;;;;;6656400;88;20094;-77
2024/02/18 11:05:12;;;;;;;;;;;9.20;99.90;;;;;;6684038;88;20654;-77
2024/02/18 11:15:13;;;;;;;;;;;9.10;99.90;;;;;;6640271;88;20077;-77
2024/02/18 11:25:17;;;;;;;;;;;9.00;99.90;;;;;;6656437;88;20486;-77
2024/02/18 11:35:20;;;;;;;;;;;8.80;99.90;;;;;;6635975;88;20084;-77
2024/02/18 11:45:20;;;;;;;;;;;8.80;99.90;;;;;;6661727;88;20071;-77
2024/02/18 11:55:22;;;;;;;;;;;8.60;99.90;;;;;;6675956;88;20165;-78
2024/02/18 12:05:24;;;;;;;;;;;8.40;99.90;;;;;;6663869;88;20078;-79
2024/02/18 12:15:26;;;;;;;;;;;8.20;99.90;;;;;;6675876;88;20066;-78
2024/02/18 12:25:34;;;;;;;;;;;8.30;99.90;;;;;;6662938;88;20660;-78
2024/02/18 12:45:38;;;;;;;;;;;8.20;99.90;;;;;;6717401;88;20114;-80
2024/02/18 12:55:38;;;;;;;;;;;8.20;99.90;;;;;;6681047;88;20171;-76
2024/02/18 13:05:39;;;;;;;;;;;8.20;99.90;;;;;;6662196;88;20443;-78
2024/02/18 13:15:39;;;;;;;;;;;8.20;99.90;;;;;;6666521;88;20080;-76
2024/02/18 13:25:40;;;;;;;;;;;8.20;99.90;;;;;;6671167;88;20250;-77
2024/02/18 13:35:40;;;;;;;;;;;8.20;99.90;;;;;;6677159;88;20069;-78
2024/02/18 13:45:42;;;;;;;;;;;8.20;99.90;;;;;;6672800;88;20163;-77
2024/02/18 13:55:42;;;;;;;;;;;8.20;99.90;;;;;;6669857;88;20075;-80
2024/02/18 14:05:43;;;;;;;;;;;8.30;99.90;;;;;;6692910;88;20501;-77
2024/02/18 14:15:43;;;;;;;;;;;8.40;99.90;;;;;;6658738;88;20073;-77
2024/02/18 14:25:44;;;;;;;;;;;8.40;99.90;;;;;;6649387;88;20062;-77
2024/02/18 14:35:44;;;;;;;;;;;8.50;99.90;;;;;;6645805;88;20077;-76
2024/02/18 14:45:45;;;;;;;;;;;8.60;99.90;;;;;;6658092;88;20090;-76
2024/02/18 14:55:45;;;;;;;;;;;8.50;99.90;;;;;;6670895;88;20529;-77
2024/02/18 15:05:46;;;;;;;;;;;8.50;99.90;;;;;;6674129;88;20145;-75
2024/02/18 15:15:46;;;;;;;;;;;8.60;99.90;;;;;;6693580;88;20127;-77
2024/02/18 15:25:50;;;;;;;;;;;8.80;99.90;;;;;;6690985;88;20093;-77
2024/02/18 15:35:51;;;;;;;;;;;8.80;99.90;;;;;;6669769;88;20083;-76
2024/02/18 15:45:52;;;;;;;;;;;9.00;99.90;;;;;;6650885;88;20126;-76
2024/02/18 15:55:54;;;;;;;;;;;9.10;99.90;;;;;;6658946;88;20079;-76
2024/02/18 16:05:54;;;;;;;;;;;9.20;99.90;;;;;;6647123;88;20082;-76
2024/02/18 16:15:55;;;;;;;;;;;9.60;99.90;;;;;;6650720;88;20280;-76
2024/02/18 16:25:55;;;;;;;;;;;9.90;99.90;;;;;;6649903;88;20203;-77
2024/02/18 16:35:56;;;;;;;;;;;10.10;99.90;;;;;;6650956;88;20066;-77
2024/02/18 16:46:00;;;;;;;;;;;10.10;99.90;;;;;;6678515;88;20056;-75
2024/02/18 16:56:02;;;;;;;;;;;10.30;99.90;;;;;;6678156;88;20059;-77
2024/02/18 17:06:04;;;;;;;;;;;10.20;99.90;;;;;;6672194;88;20069;-77
2024/02/18 17:16:05;;;;;;;;;;;10.20;99.90;;;;;;6667260;88;20063;-76
2024/02/18 17:26:05;;;;;;;;;;;10.30;99.90;;;;;;6675997;88;20088;-76
2024/02/18 17:36:05;;;;;;;;;;;10.10;99.90;;;;;;6697055;88;20084;-77
2024/02/18 17:46:06;;;;;;;;;;;10.40;99.90;;;;;;6698167;88;20058;-77
2024/02/18 17:56:07;;;;;;;;;;;10.60;99.90;;;;;;6654521;88;20102;-76
2024/02/18 18:06:08;;;;;;;;;;;10.60;99.90;;;;;;6652391;88;20614;-76
2024/02/18 18:16:08;;;;;;;;;;;10.50;99.90;;;;;;6659812;88;20054;-76
2024/02/18 18:26:09;;;;;;;;;;;10.50;99.90;;;;;;6669947;88;20215;-77
2024/02/18 18:46:14;;;;;;;;;;;10.10;99.90;;;;;;6667810;89;20117;-82
2024/02/18 18:56:15;;;;;;;;;;;10.10;99.90;;;;;;6644033;88;20086;-81
2024/02/18 19:06:16;;;;;;;;;;;10.00;99.90;;;;;;6670993;88;20080;-79
2024/02/18 19:16:16;;;;;;;;;;;10.00;99.90;;;;;;6640874;89;20086;-81
2024/02/18 19:26:17;;;;;;;;;;;9.90;99.90;;;;;;6629727;88;20066;-80
2024/02/18 19:36:18;;;;;;;;;;;10.00;99.90;;;;;;6634196;89;20078;-78
2024/02/18 19:46:18;;;;;;;;;;;10.20;99.90;;;;;;6644458;89;20106;-82
2024/02/18 19:56:19;;;;;;;;;;;10.20;99.90;;;;;;6662599;88;20062;-82
2024/02/18 20:06:19;;;;;;;;;;;10.20;99.90;;;;;;6646141;89;20038;-82
2024/02/18 20:16:20;;;;;;;;;;;10.20;99.90;;;;;;6648487;89;20578;-81
2024/02/18 20:26:20;;;;;;;;;;;10.30;99.90;;;;;;6649597;89;20061;-80
2024/02/18 20:36:21;;;;;;;;;;;10.20;99.90;;;;;;6649717;89;20061;-81
2024/02/18 20:46:22;;;;;;;;;;;10.00;99.90;;;;;;6646827;89;20099;-81
2024/02/18 20:56:22;;;;;;;;;;;10.00;99.90;;;;;;6652934;89;20116;-79
2024/02/18 21:06:23;;;;;;;;;;;10.00;99.90;;;;;;6626128;88;20099;-80
2024/02/18 21:16:23;;;;;;;;;;;9.90;99.90;;;;;;6640123;89;20134;-79
2024/02/18 21:26:23;;;;;;;;;;;9.80;99.90;;;;;;6648290;89;20086;-79
2024/02/18 21:36:24;;;;;;;;;;;9.80;99.90;;;;;;6647411;88;20515;-77
2024/02/18 21:46:26;;;;;;;;;;;9.70;99.90;;;;;;6638828;88;20059;-78
2024/02/18 21:56:26;;;;;;;;;;;9.80;99.90;;;;;;6635645;88;20083;-78
2024/02/18 22:06:27;;;;;;;;;;;9.80;99.90;;;;;;6637473;88;20054;-78
2024/02/18 22:16:27;;;;;;;;;;;9.80;99.90;;;;;;6643038;88;20158;-79
2024/02/18 22:26:28;;;;;;;;;;;9.80;99.90;;;;;;6634867;88;20058;-79
2024/02/18 22:36:28;;;;;;;;;;;9.80;99.90;;;;;;6639239;88;20076;-78
2024/02/18 22:46:29;;;;;;;;;;;9.80;99.90;;;;;;6635737;88;20067;-78
2024/02/18 22:56:29;;;;;;;;;;;9.90;99.90;;;;;;6643634;88;20065;-78
2024/02/18 23:06:31;;;;;;;;;;;9.80;99.90;;;;;;6637392;88;20134;-78
2024/02/18 23:16:31;;;;;;;;;;;9.80;99.90;;;;;;6642736;88;20067;-78
2024/02/18 23:26:32;;;;;;;;;;;9.80;99.90;;;;;;6644348;88;20074;-77
2024/02/18 23:36:32;;;;;;;;;;;9.70;99.90;;;;;;6643833;88;20075;-78
2024/02/18 23:46:33;;;;;;;;;;;9.60;99.90;;;;;;6640103;88;20095;-78
2024/02/18 23:56:34;;;;;;;;;;;9.50;99.90;;;;;;6647712;88;20213;-79
